createdAt,value
2019-03-13T00:00:26.012Z,5.60
2019-03-13T00:02:58.314Z,5.57
2019-03-13T00:05:30.487Z,6.83
2019-03-13T00:08:02.382Z,7.53
2019-03-13T00:10:34.332Z,10.40
2019-03-13T00:13:06.892Z,9.33
2019-03-13T00:15:39.193Z,5.33
2019-03-13T00:18:11.132Z,10.60
2019-03-13T00:20:43.112Z,3.33
2019-03-13T00:23:15.361Z,6.00
2019-03-13T00:25:48.132Z,7.73
2019-03-13T00:28:20.072Z,7.30
2019-03-13T00:30:52.010Z,6.63
2019-03-13T00:33:24.220Z,5.93
2019-03-13T00:35:56.210Z,9.40
2019-03-13T00:38:28.144Z,4.27
2019-03-13T00:41:00.164Z,7.23
2019-03-13T00:43:32.383Z,7.90
2019-03-13T00:46:04.346Z,3.77
2019-03-13T00:48:36.283Z,10.37
2019-03-13T00:51:08.236Z,6.97
2019-03-13T00:53:40.174Z,4.13
2019-03-13T00:56:12.106Z,5.30
2019-03-13T00:58:44.043Z,9.87
2019-03-13T01:01:17.626Z,5.47
2019-03-13T01:03:51.194Z,7.70
2019-03-13T01:06:24.794Z,6.27
2019-03-13T01:08:56.736Z,5.63
2019-03-13T01:11:28.709Z,6.77
2019-03-13T01:14:00.821Z,3.93
2019-03-13T01:16:32.772Z,4.63
2019-03-13T01:19:04.710Z,4.33
2019-03-13T01:21:36.661Z,8.30
2019-03-13T01:24:08.613Z,12.47
2019-03-13T01:26:40.620Z,8.13
2019-03-13T01:29:12.554Z,8.60
2019-03-13T01:31:49.049Z,6.30
2019-03-13T01:34:37.573Z,8.33
2019-03-13T01:37:09.519Z,7.33
2019-03-13T01:39:41.451Z,7.43
2019-03-13T01:42:13.970Z,6.83
2019-03-13T01:44:45.979Z,9.90
2019-03-13T01:47:17.918Z,8.40
2019-03-13T01:49:50.049Z,4.23
2019-03-13T01:52:22.147Z,7.63
2019-03-13T01:54:55.018Z,10.63
2019-03-13T01:57:27.723Z,5.97
2019-03-13T02:00:00.365Z,4.63
2019-03-13T02:02:32.578Z,4.67
2019-03-13T02:05:05.554Z,6.67
2019-03-13T02:07:37.746Z,7.40
2019-03-13T02:10:12.696Z,7.30
2019-03-13T02:12:45.007Z,4.43
2019-03-13T04:29:13.975Z,16.00
2019-03-13T04:31:46.273Z,10.53
2019-03-13T04:34:18.234Z,13.60
2019-03-13T04:36:50.293Z,9.27
2019-03-13T04:39:22.205Z,11.43
2019-03-13T04:41:54.141Z,11.07
2019-03-13T04:44:26.450Z,14.53
2019-03-13T04:46:58.405Z,10.90
2019-03-13T04:49:30.678Z,13.17
2019-03-13T04:52:02.613Z,6.40
2019-03-13T04:54:34.573Z,8.80
2019-03-13T04:57:06.508Z,10.50
2019-03-13T04:59:38.472Z,13.00
2019-03-13T05:02:10.409Z,7.67
2019-03-13T05:04:42.374Z,10.77
2019-03-13T05:07:14.329Z,9.43
2019-03-13T05:09:46.280Z,11.93
2019-03-13T05:12:18.219Z,12.97
2019-03-13T05:14:50.191Z,11.07
2019-03-13T05:17:22.133Z,12.27
2019-03-13T05:19:54.123Z,14.13
2019-03-13T05:22:26.055Z,12.07
2019-03-13T05:24:58.105Z,7.03
2019-03-13T05:27:30.107Z,15.57
2019-03-13T05:30:02.059Z,7.73
2019-03-13T05:32:34.277Z,9.10
2019-03-13T05:35:07.541Z,11.67
2019-03-13T05:37:39.499Z,7.17
2019-03-13T05:40:12.859Z,10.13
2019-03-13T05:42:44.795Z,13.37
2019-03-13T05:45:16.820Z,11.13
2019-03-13T05:47:48.777Z,11.30
2019-03-13T05:50:20.728Z,11.70
2019-03-13T05:52:52.675Z,9.70
2019-03-13T05:55:24.753Z,10.00
2019-03-13T05:57:56.703Z,16.07
2019-03-13T06:00:29.521Z,7.77
2019-03-13T06:03:01.465Z,6.87
2019-03-13T06:05:33.561Z,7.33
2019-03-13T06:08:05.585Z,10.80
2019-03-13T06:10:37.526Z,8.77
2019-03-13T06:13:09.486Z,8.40
2019-03-13T06:15:41.438Z,11.70
2019-03-13T06:18:13.480Z,10.07
2019-03-13T06:20:45.452Z,10.90
2019-03-13T06:23:17.398Z,9.13
2019-03-13T06:25:49.352Z,13.13
2019-03-13T06:28:21.291Z,12.03
2019-03-13T06:30:53.253Z,8.03
2019-03-13T06:33:25.187Z,11.77
2019-03-13T06:35:57.174Z,15.33
2019-03-13T06:38:29.425Z,10.67
2019-03-13T06:41:05.002Z,10.87
2019-03-13T06:43:35.706Z,10.20
2019-03-13T06:46:07.651Z,13.90
2019-03-13T06:48:39.600Z,8.80
2019-03-13T06:51:11.543Z,9.23
2019-03-13T06:53:43.543Z,8.27
2019-03-13T06:56:15.490Z,11.60
2019-03-13T06:58:49.075Z,15.63
2019-03-13T07:01:28.625Z,9.73
2019-03-13T07:04:21.252Z,7.40
2019-03-13T07:07:10.010Z,11.97
2019-03-13T07:09:58.543Z,7.03
2019-03-13T07:12:32.140Z,10.10
2019-03-13T07:15:15.656Z,9.77
2019-03-13T07:18:05.319Z,10.03
2019-03-13T07:20:51.331Z,10.63
2019-03-13T07:23:41.427Z,9.37
2019-03-13T07:26:15.338Z,11.10
2019-03-13T07:28:52.525Z,11.60
2019-03-13T07:31:26.337Z,9.53
2019-03-13T07:33:59.916Z,12.20
2019-03-13T07:36:42.627Z,8.27
2019-03-13T07:39:22.320Z,11.33
2019-03-13T07:41:58.836Z,10.17
2019-03-13T07:44:41.469Z,9.00
2019-03-13T07:47:15.118Z,14.17
2019-03-13T07:49:48.741Z,10.23
2019-03-13T07:52:40.599Z,8.47
2019-03-13T07:55:16.892Z,9.50
2019-03-13T07:57:50.535Z,13.33
2019-03-13T08:00:25.141Z,13.33
2019-03-13T08:02:58.816Z,14.03
2019-03-13T08:05:38.359Z,14.30
2019-03-13T08:08:12.009Z,12.83
2019-03-13T08:11:01.772Z,13.60
2019-03-13T08:13:51.770Z,12.27
2019-03-13T08:16:28.243Z,13.83
2019-03-13T08:19:17.103Z,14.70
2019-03-13T08:22:07.038Z,10.10
2019-03-13T08:24:55.617Z,13.73
2019-03-13T08:27:44.089Z,16.23
2019-03-13T08:30:20.193Z,11.63
2019-03-13T08:33:05.385Z,15.43
2019-03-13T08:35:42.078Z,14.73
2019-03-13T08:38:24.756Z,10.37
2019-03-13T08:41:04.273Z,16.70
2019-03-13T08:43:53.931Z,13.77
2019-03-13T08:46:33.418Z,13.80
2019-03-13T08:49:10.004Z,17.20
2019-03-13T08:51:49.090Z,11.27
2019-03-13T08:54:28.418Z,12.17
2019-03-13T08:57:02.007Z,17.10
2019-03-13T08:59:36.192Z,15.67
2019-03-13T09:02:10.103Z,18.57
2019-03-13T09:04:47.044Z,14.27
2019-03-13T09:07:32.751Z,15.37
2019-03-13T09:10:25.971Z,15.10
2019-03-13T09:13:05.475Z,11.17
2019-03-13T09:15:50.802Z,10.43
2019-03-13T09:18:33.770Z,14.57
2019-03-13T09:21:13.103Z,12.10
2019-03-13T09:23:55.576Z,11.50
2019-03-13T09:26:29.175Z,14.60
2019-03-13T09:29:18.843Z,16.27
2019-03-13T09:31:55.330Z,14.80
2019-03-13T09:34:37.837Z,18.97
2019-03-13T09:37:23.670Z,12.87
2019-03-13T09:39:57.248Z,19.67
2019-03-13T09:42:36.766Z,22.07
2019-03-13T09:45:12.796Z,17.83
2019-03-13T09:47:46.392Z,15.47
2019-03-13T09:50:22.671Z,15.80
2019-03-13T09:53:05.221Z,20.27
2019-03-13T09:55:39.055Z,14.50
2019-03-13T09:58:28.586Z,14.33
2019-03-13T10:01:08.198Z,17.30
2019-03-13T10:03:44.441Z,17.37
2019-03-13T10:06:18.082Z,9.60
2019-03-13T10:09:00.658Z,14.63
2019-03-13T10:11:34.279Z,20.27
2019-03-13T10:14:07.895Z,15.77
2019-03-13T10:16:44.237Z,19.33
2019-03-13T10:19:33.011Z,15.93
2019-03-13T10:22:09.485Z,15.83
2019-03-13T10:24:43.103Z,23.93
2019-03-13T10:27:34.525Z,16.50
2019-03-13T10:30:14.774Z,11.60
2019-03-13T10:33:04.388Z,17.20
2019-03-13T10:35:37.981Z,14.50
2019-03-13T10:38:17.474Z,15.80
2019-03-13T10:40:59.987Z,19.03
2019-03-13T10:43:39.686Z,14.73
2019-03-13T10:46:19.375Z,8.83
2019-03-13T10:48:55.774Z,14.90
2019-03-13T10:51:41.305Z,12.43
2019-03-13T10:54:17.871Z,14.23
2019-03-13T10:56:54.404Z,19.43
2019-03-13T10:59:28.084Z,14.17
2019-03-13T11:02:17.901Z,15.83
2019-03-13T11:04:57.376Z,15.03
2019-03-13T11:07:33.937Z,14.83
2019-03-13T11:10:17.351Z,14.33
2019-03-13T11:12:53.458Z,13.00
2019-03-13T11:15:32.780Z,12.00
2019-03-13T11:18:22.450Z,15.73
2019-03-13T11:20:59.010Z,15.70
2019-03-13T11:23:32.656Z,14.13
2019-03-13T11:26:17.801Z,14.00
2019-03-13T11:29:09.664Z,15.57
2019-03-13T11:31:43.259Z,18.67
2019-03-13T11:34:22.795Z,12.10
2019-03-13T11:37:05.265Z,12.20
2019-03-13T11:39:38.890Z,13.23
2019-03-13T11:42:12.538Z,10.93
2019-03-13T11:44:49.144Z,12.73
2019-03-13T11:47:41.868Z,14.27
2019-03-13T11:50:22.576Z,16.00
2019-03-13T11:53:02.022Z,15.47
2019-03-13T11:55:35.621Z,13.60
2019-03-13T11:58:15.286Z,19.67
2019-03-13T12:01:05.177Z,17.40
2019-03-13T12:03:54.947Z,13.90
2019-03-13T12:06:28.560Z,14.77
2019-03-13T12:09:08.028Z,13.47
2019-03-13T12:11:44.326Z,16.63
2019-03-13T12:14:29.677Z,15.53
2019-03-13T12:17:09.102Z,15.77
2019-03-13T12:19:42.779Z,14.13
2019-03-13T12:22:19.141Z,12.60
2019-03-13T12:25:09.134Z,16.77
2019-03-13T12:27:48.995Z,13.90
2019-03-13T12:30:39.733Z,10.90
2019-03-13T12:33:29.413Z,14.97
2019-03-13T12:36:09.094Z,14.33
2019-03-13T12:38:45.659Z,17.27
2019-03-13T12:41:36.028Z,17.27
2019-03-13T12:44:18.801Z,9.73
2019-03-13T12:47:01.440Z,8.93
2019-03-13T12:49:38.795Z,15.07
2019-03-13T12:52:21.358Z,13.93
2019-03-13T12:55:10.166Z,10.10
2019-03-13T12:57:43.762Z,10.53
2019-03-13T13:00:37.737Z,10.97
2019-03-13T13:03:14.220Z,12.03
2019-03-13T13:05:57.252Z,9.60
2019-03-13T13:08:33.548Z,11.57
2019-03-13T13:11:07.367Z,10.50
2019-03-13T13:13:56.217Z,12.07
2019-03-13T13:16:41.748Z,9.57
2019-03-13T13:19:13.725Z,11.00
2019-03-13T13:21:45.806Z,16.73
2019-03-13T13:24:18.162Z,16.37
2019-03-13T13:26:50.503Z,11.20
2019-03-13T13:29:22.539Z,13.77
2019-03-13T13:31:55.428Z,13.33
2019-03-13T13:34:27.719Z,11.73
2019-03-13T13:36:59.725Z,10.60
2019-03-13T13:39:31.704Z,11.90
2019-03-13T13:42:03.645Z,12.93
2019-03-13T13:44:35.689Z,11.37
2019-03-13T13:47:08.087Z,12.67
2019-03-13T13:49:40.035Z,7.17
2019-03-13T13:52:12.292Z,9.43
2019-03-13T13:54:44.302Z,10.17
2019-03-13T13:57:16.521Z,15.97
2019-03-13T13:59:48.478Z,15.83
2019-03-13T14:02:20.449Z,12.63
2019-03-13T14:04:52.407Z,9.57
2019-03-13T14:07:24.352Z,8.73
2019-03-13T14:09:56.333Z,12.73
2019-03-13T14:12:28.316Z,9.67
2019-03-13T14:15:00.672Z,8.60
2019-03-13T14:17:32.664Z,11.60
2019-03-13T14:20:06.564Z,5.37
2019-03-13T14:22:38.785Z,7.27
2019-03-13T14:25:13.948Z,5.20
2019-03-13T14:27:45.935Z,10.40
2019-03-13T14:30:22.780Z,8.67
2019-03-13T14:32:54.810Z,8.87
2019-03-13T14:35:30.918Z,9.97
2019-03-13T14:38:03.462Z,10.17
2019-03-13T14:40:35.642Z,7.73
2019-03-13T14:43:07.671Z,9.47
2019-03-13T14:45:39.609Z,9.70
2019-03-13T14:48:11.575Z,9.17
2019-03-13T14:50:43.853Z,8.90
2019-03-13T14:53:15.795Z,9.17
2019-03-13T14:55:48.048Z,6.90
2019-03-13T14:58:20.055Z,8.10
2019-03-13T15:00:52.252Z,6.47
2019-03-13T15:03:27.630Z,12.33
2019-03-13T15:05:59.629Z,7.80
2019-03-13T15:08:31.607Z,8.80
2019-03-13T15:11:03.808Z,7.10
2019-03-13T15:13:35.743Z,9.50
2019-03-13T15:16:07.795Z,9.07
2019-03-13T15:18:39.736Z,9.10
2019-03-13T15:21:11.946Z,9.20
2019-03-13T15:23:43.913Z,8.93
2019-03-13T15:26:15.864Z,9.57
2019-03-13T15:28:48.123Z,7.57
2019-03-13T15:31:20.087Z,9.60
2019-03-13T15:33:52.320Z,7.93
2019-03-13T15:36:24.281Z,10.40
2019-03-13T15:38:56.263Z,10.70
2019-03-13T15:41:28.448Z,9.40
2019-03-13T15:44:00.739Z,5.60
2019-03-13T15:46:33.017Z,7.17
2019-03-13T15:49:05.483Z,6.13
2019-03-13T15:51:38.752Z,5.83
2019-03-13T15:54:11.035Z,6.10
2019-03-13T15:56:43.321Z,11.00
2019-03-13T15:59:15.569Z,6.97
2019-03-13T16:01:47.506Z,9.70
2019-03-13T16:04:19.930Z,6.00
2019-03-13T16:06:51.875Z,8.07
2019-03-13T16:09:23.814Z,7.53
2019-03-13T16:11:55.759Z,7.33
2019-03-13T16:14:28.808Z,8.77
2019-03-13T16:17:01.022Z,9.47
2019-03-13T16:19:32.963Z,5.53
2019-03-13T16:22:06.187Z,10.57
2019-03-13T16:24:38.210Z,9.17
2019-03-13T16:27:10.248Z,5.33
2019-03-13T16:29:42.525Z,5.27
2019-03-13T16:32:16.731Z,8.20
2019-03-13T16:34:48.681Z,7.33
2019-03-13T16:37:20.965Z,8.77
2019-03-13T16:39:53.339Z,5.60
2019-03-13T16:42:25.281Z,4.43
2019-03-13T16:44:57.294Z,9.67
2019-03-13T16:47:29.232Z,4.90
2019-03-13T16:50:01.387Z,7.43
2019-03-13T16:52:33.390Z,7.80
2019-03-13T16:55:09.276Z,4.63
2019-03-13T16:57:41.238Z,8.50
2019-03-13T17:00:31.706Z,7.03
2019-03-13T17:03:03.779Z,4.20
2019-03-13T17:05:35.728Z,7.87
2019-03-13T17:08:07.698Z,5.23
2019-03-13T17:10:39.940Z,6.57
2019-03-13T17:13:11.900Z,5.23
2019-03-13T17:15:43.839Z,6.23
2019-03-13T17:18:16.138Z,5.10
2019-03-13T17:20:48.443Z,4.20
2019-03-13T17:23:20.412Z,6.70
2019-03-13T17:25:52.423Z,7.40
2019-03-13T17:28:24.948Z,5.62
2019-03-13T17:30:56.888Z,4.93
2019-03-13T17:33:28.831Z,5.63
2019-03-13T17:36:00.763Z,4.60
2019-03-13T17:38:34.343Z,5.97
2019-03-13T17:41:06.380Z,5.60
2019-03-13T17:43:39.850Z,4.73
2019-03-13T17:46:12.051Z,7.77
2019-03-13T17:48:44.018Z,5.80
2019-03-13T17:51:16.329Z,6.40
2019-03-13T17:53:48.853Z,6.47
2019-03-13T17:56:21.126Z,5.30
2019-03-13T17:58:53.409Z,7.40
2019-03-13T18:01:25.360Z,8.30
2019-03-13T18:03:57.291Z,4.30
2019-03-13T18:06:31.229Z,5.47
2019-03-13T18:09:04.836Z,6.40
2019-03-13T18:11:37.422Z,5.50
2019-03-13T18:14:09.696Z,6.93
2019-03-13T18:16:42.122Z,5.43
2019-03-13T18:19:14.133Z,6.13
2019-03-13T18:21:46.108Z,7.67
2019-03-13T18:24:18.049Z,12.97
2019-03-13T18:26:50.347Z,12.17
2019-03-13T18:29:22.692Z,7.23
2019-03-13T18:31:55.092Z,6.27
2019-03-13T18:34:27.010Z,6.60
2019-03-13T18:36:59.068Z,7.67
2019-03-13T18:39:31.408Z,34.87
2019-03-13T18:42:03.638Z,9.03
2019-03-13T18:44:37.917Z,5.07
2019-03-13T18:47:09.926Z,7.30
2019-03-13T18:49:41.877Z,4.90
2019-03-13T18:52:13.819Z,3.40
2019-03-13T18:54:45.787Z,5.87
2019-03-13T18:57:17.994Z,3.73
2019-03-13T18:59:49.938Z,4.97
2019-03-13T19:02:22.122Z,4.03
2019-03-13T19:04:54.147Z,5.53
2019-03-13T19:07:26.351Z,9.63
2019-03-13T19:09:58.358Z,6.23
2019-03-13T19:12:30.586Z,4.27
2019-03-13T19:15:02.558Z,5.80
2019-03-13T19:17:34.502Z,5.00
2019-03-13T19:20:12.128Z,5.67
2019-03-13T19:22:44.687Z,6.20
2019-03-13T19:25:17.439Z,5.83
2019-03-13T19:27:49.512Z,5.03
2019-03-13T19:30:37.383Z,5.10
2019-03-13T19:33:07.966Z,6.03
2019-03-13T19:35:39.999Z,5.83
2019-03-13T19:38:15.302Z,6.53
2019-03-13T19:40:47.410Z,4.53
2019-03-13T19:43:19.350Z,4.07
2019-03-13T19:45:51.619Z,4.90
2019-03-13T19:48:23.553Z,6.73
2019-03-13T19:50:56.679Z,4.27
2019-03-13T19:53:28.738Z,5.73
2019-03-13T19:56:00.690Z,6.07
2019-03-13T19:58:32.636Z,5.07
2019-03-13T20:01:05.823Z,6.37
2019-03-13T20:03:54.664Z,5.50
2019-03-13T20:06:17.968Z,7.63
2019-03-13T20:08:50.237Z,7.17
2019-03-13T20:11:22.167Z,6.60
2019-03-13T20:13:54.126Z,5.77
2019-03-13T20:16:26.061Z,5.67
2019-03-13T20:18:58.003Z,7.17
2019-03-13T20:21:31.336Z,8.73
2019-03-13T20:24:03.425Z,6.83
2019-03-13T20:26:35.358Z,8.23
2019-03-13T20:29:07.600Z,5.67
2019-03-13T20:31:39.540Z,7.97
2019-03-13T20:34:11.478Z,7.27
2019-03-13T20:36:43.421Z,5.93
2019-03-13T20:39:15.362Z,7.13
2019-03-13T20:41:47.324Z,8.70
2019-03-13T20:44:19.663Z,5.37
2019-03-13T20:46:51.598Z,7.33
2019-03-13T20:49:23.531Z,4.13
2019-03-13T20:51:55.545Z,5.10
2019-03-13T20:54:27.854Z,4.53
2019-03-13T20:56:59.790Z,5.77
2019-03-13T20:59:32.763Z,5.80
2019-03-13T21:02:05.032Z,4.63
2019-03-13T21:04:38.108Z,6.03
2019-03-13T21:07:10.165Z,8.70
2019-03-13T21:09:42.107Z,6.23
2019-03-13T21:12:14.071Z,4.27
2019-03-13T21:14:46.010Z,5.90
2019-03-13T21:17:18.040Z,6.97
2019-03-13T21:19:50.246Z,4.13
2019-03-13T21:22:22.275Z,2.67
2019-03-13T21:24:54.508Z,4.67
2019-03-13T21:27:26.459Z,2.23
2019-03-13T21:29:58.824Z,2.77
2019-03-13T21:32:30.847Z,2.13
2019-03-13T21:35:03.777Z,2.80
2019-03-13T21:37:35.794Z,1.50
2019-03-13T21:40:24.970Z,1.57
2019-03-13T21:42:57.008Z,2.53
2019-03-13T21:45:40.659Z,2.87
2019-03-13T21:48:02.911Z,3.70
2019-03-13T21:50:35.165Z,1.70
2019-03-13T21:53:07.636Z,3.63
2019-03-13T21:55:39.561Z,2.37
2019-03-13T21:58:11.823Z,2.87
2019-03-13T22:00:43.940Z,4.30
2019-03-13T22:03:28.026Z,3.53
2019-03-13T22:05:50.069Z,3.07
2019-03-13T22:08:23.365Z,3.43
2019-03-13T22:10:55.384Z,6.30
2019-03-13T22:13:27.873Z,5.87
2019-03-13T22:16:00.279Z,3.40
2019-03-13T22:18:33.366Z,4.53
2019-03-13T22:21:05.320Z,4.60
2019-03-13T22:23:37.258Z,4.37
2019-03-13T22:26:09.273Z,4.87
2019-03-13T22:28:41.207Z,6.53
2019-03-13T22:31:13.516Z,3.83
2019-03-13T22:33:45.826Z,4.87
2019-03-13T22:36:17.770Z,7.60
2019-03-13T22:38:49.713Z,5.43
2019-03-13T22:41:22.313Z,6.17
2019-03-13T22:43:54.545Z,6.20
2019-03-13T22:46:26.489Z,7.07
2019-03-13T22:48:59.307Z,7.53
2019-03-13T22:51:31.241Z,7.57
2019-03-13T22:54:03.184Z,9.93
2019-03-13T22:56:35.188Z,5.87
2019-03-13T22:59:07.139Z,8.80
2019-03-13T23:01:42.993Z,10.63
2019-03-13T23:04:14.997Z,10.70
2019-03-13T23:06:46.936Z,12.17
2019-03-13T23:09:18.882Z,10.83
2019-03-13T23:11:50.823Z,10.73
2019-03-13T23:14:22.771Z,11.20
2019-03-13T23:16:54.716Z,15.57
2019-03-13T23:19:26.668Z,11.87
2019-03-13T23:21:58.606Z,10.57
2019-03-13T23:24:30.572Z,11.90
2019-03-13T23:27:02.944Z,15.20
2019-03-13T23:29:34.898Z,8.17
2019-03-13T23:32:07.015Z,14.93
2019-03-13T23:34:38.957Z,9.13
2019-03-13T23:37:10.891Z,13.40
2019-03-13T23:39:42.849Z,12.93
2019-03-13T23:42:14.955Z,13.53
2019-03-13T23:44:46.989Z,16.70
2019-03-13T23:47:19.108Z,12.97
2019-03-13T23:49:51.219Z,12.37
2019-03-13T23:52:25.718Z,11.83
2019-03-13T23:54:56.907Z,11.07
2019-03-13T23:57:28.930Z,11.83
